sensor_id;sensor_type;location;lat;lon;timestamp;pressure;altitude;pressure_sealevel;temperature;humidity
50282;BME280;36176;51.506;10.272;2023-03-01T00:01:12;100854.38;;;-6.15;88.04
50282;BME280;36176;51.506;10.272;2023-03-01T00:03:39;100844.75;;;-6.19;88.23
50282;BME280;36176;51.506;10.272;2023-03-01T00:06:06;100842.94;;;-6.22;88.10
50282;BME280;36176;51.506;10.272;2023-03-01T00:08:34;100856.78;;;-6.20;88.78
50282;BME280;36176;51.506;10.272;2023-03-01T00:11:12;100849.84;;;-6.21;87.99
50282;BME280;36176;51.506;10.272;2023-03-01T00:13:40;100848.88;;;-6.23;88.23
50282;BME280;36176;51.506;10.272;2023-03-01T00:16:11;100849.59;;;-6.27;88.34
50282;BME280;36176;51.506;10.272;2023-03-01T00:18:39;100849.31;;;-6.33;87.91
50282;BME280;36176;51.506;10.272;2023-03-01T00:21:06;100845.72;;;-6.37;88.54
50282;BME280;36176;51.506;10.272;2023-03-01T00:23:34;100845.72;;;-6.37;88.95
50282;BME280;36176;51.506;10.272;2023-03-01T00:26:05;100846.34;;;-6.43;88.39
50282;BME280;36176;51.506;10.272;2023-03-01T00:28:33;100851.25;;;-6.49;87.76
50282;BME280;36176;51.506;10.272;2023-03-01T00:31:04;100851.06;;;-6.53;88.94
50282;BME280;36176;51.506;10.272;2023-03-01T00:33:32;100864.88;;;-6.51;89.26
50282;BME280;36176;51.506;10.272;2023-03-01T00:35:59;100857.84;;;-6.55;88.71
50282;BME280;36176;51.506;10.272;2023-03-01T00:38:27;100856.00;;;-6.58;89.02
50282;BME280;36176;51.506;10.272;2023-03-01T00:40:54;100860.13;;;-6.61;88.94
50282;BME280;36176;51.506;10.272;2023-03-01T00:43:21;100852.19;;;-6.66;88.25
50282;BME280;36176;51.506;10.272;2023-03-01T00:45:48;100847.00;;;-6.68;87.74
50282;BME280;36176;51.506;10.272;2023-03-01T00:48:15;100854.50;;;-6.72;87.70
50282;BME280;36176;51.506;10.272;2023-03-01T00:50:42;100851.78;;;-6.75;87.90
50282;BME280;36176;51.506;10.272;2023-03-01T00:53:09;100856.06;;;-6.76;88.19
50282;BME280;36176;51.506;10.272;2023-03-01T00:55:36;100859.19;;;-6.83;87.85
50282;BME280;36176;51.506;10.272;2023-03-01T00:58:03;100853.88;;;-6.86;87.52
50282;BME280;36176;51.506;10.272;2023-03-01T01:00:30;100839.31;;;-6.86;87.95
50282;BME280;36176;51.506;10.272;2023-03-01T01:02:57;100841.00;;;-6.86;87.69
50282;BME280;36176;51.506;10.272;2023-03-01T01:05:23;100826.34;;;-6.87;87.84
50282;BME280;36176;51.506;10.272;2023-03-01T01:07:50;100823.03;;;-6.85;88.80
50282;BME280;36176;51.506;10.272;2023-03-01T01:10:17;100822.69;;;-6.92;88.32
50282;BME280;36176;51.506;10.272;2023-03-01T01:12:45;100821.81;;;-6.93;88.33
50282;BME280;36176;51.506;10.272;2023-03-01T01:15:13;100829.53;;;-6.93;89.25
50282;BME280;36176;51.506;10.272;2023-03-01T01:17:40;100834.44;;;-6.99;88.87
50282;BME280;36176;51.506;10.272;2023-03-01T01:20:08;100839.41;;;-7.02;89.46
50282;BME280;36176;51.506;10.272;2023-03-01T01:22:35;100825.66;;;-7.02;88.97
50282;BME280;36176;51.506;10.272;2023-03-01T01:25:03;100824.72;;;-7.04;88.68
50282;BME280;36176;51.506;10.272;2023-03-01T01:27:30;100813.53;;;-7.05;88.85
50282;BME280;36176;51.506;10.272;2023-03-01T01:29:57;100810.94;;;-7.05;89.83
50282;BME280;36176;51.506;10.272;2023-03-01T01:32:24;100817.50;;;-7.12;89.30
50282;BME280;36176;51.506;10.272;2023-03-01T01:34:53;100810.53;;;-7.14;89.44
50282;BME280;36176;51.506;10.272;2023-03-01T01:37:20;100804.50;;;-7.15;88.35
50282;BME280;36176;51.506;10.272;2023-03-01T01:39:47;100796.88;;;-7.13;88.47
50282;BME280;36176;51.506;10.272;2023-03-01T01:42:18;100795.91;;;-7.15;88.57
50282;BME280;36176;51.506;10.272;2023-03-01T01:44:46;100800.03;;;-7.19;88.46
50282;BME280;36176;51.506;10.272;2023-03-01T01:47:23;100802.53;;;-7.20;87.76
50282;BME280;36176;51.506;10.272;2023-03-01T01:49:54;100802.34;;;-7.25;88.78
50282;BME280;36176;51.506;10.272;2023-03-01T01:52:27;100797.09;;;-7.27;88.60
50282;BME280;36176;51.506;10.272;2023-03-01T01:55:11;100800.50;;;-7.28;88.73
50282;BME280;36176;51.506;10.272;2023-03-01T01:57:44;100796.28;;;-7.25;88.89
50282;BME280;36176;51.506;10.272;2023-03-01T02:00:16;100798.06;;;-7.24;89.33
50282;BME280;36176;51.506;10.272;2023-03-01T02:02:44;100789.25;;;-7.30;89.22
50282;BME280;36176;51.506;10.272;2023-03-01T02:05:26;100792.56;;;-7.32;88.60
50282;BME280;36176;51.506;10.272;2023-03-01T02:07:56;100788.06;;;-7.36;88.64
50282;BME280;36176;51.506;10.272;2023-03-01T02:10:25;100781.19;;;-7.37;89.11
50282;BME280;36176;51.506;10.272;2023-03-01T02:12:54;100781.00;;;-7.40;88.83
50282;BME280;36176;51.506;10.272;2023-03-01T02:15:23;100790.44;;;-7.41;88.69
50282;BME280;36176;51.506;10.272;2023-03-01T02:17:52;100783.59;;;-7.40;88.50
50282;BME280;36176;51.506;10.272;2023-03-01T02:20:28;100790.56;;;-7.38;88.84
50282;BME280;36176;51.506;10.272;2023-03-01T02:22:59;100771.81;;;-7.35;88.83
50282;BME280;36176;51.506;10.272;2023-03-01T02:28:38;100757.38;;;-7.32;88.96
50282;BME280;36176;51.506;10.272;2023-03-01T02:31:08;100751.41;;;-7.31;89.20
50282;BME280;36176;51.506;10.272;2023-03-01T02:33:54;100761.66;;;-7.32;89.52
50282;BME280;36176;51.506;10.272;2023-03-01T02:36:26;100753.94;;;-7.32;88.75
50282;BME280;36176;51.506;10.272;2023-03-01T02:38:58;100753.84;;;-7.34;88.10
50282;BME280;36176;51.506;10.272;2023-03-01T02:41:28;100752.91;;;-7.36;88.29
50282;BME280;36176;51.506;10.272;2023-03-01T02:43:57;100759.97;;;-7.32;87.99
50282;BME280;36176;51.506;10.272;2023-03-01T02:46:25;100759.09;;;-7.32;87.63
50282;BME280;36176;51.506;10.272;2023-03-01T02:48:55;100752.25;;;-7.32;87.66
50282;BME280;36176;51.506;10.272;2023-03-01T02:54:31;100757.53;;;-7.29;88.58
50282;BME280;36176;51.506;10.272;2023-03-01T02:57:01;100755.59;;;-7.33;88.19
50282;BME280;36176;51.506;10.272;2023-03-01T02:59:31;100761.59;;;-7.34;88.00
50282;BME280;36176;51.506;10.272;2023-03-01T03:02:00;100758.13;;;-7.34;88.27
50282;BME280;36176;51.506;10.272;2023-03-01T03:04:27;100758.00;;;-7.37;88.85
50282;BME280;36176;51.506;10.272;2023-03-01T03:06:54;100759.47;;;-7.42;88.39
50282;BME280;36176;51.506;10.272;2023-03-01T03:09:21;100751.00;;;-7.40;89.03
50282;BME280;36176;51.506;10.272;2023-03-01T03:11:48;100746.66;;;-7.41;89.35
50282;BME280;36176;51.506;10.272;2023-03-01T03:14:16;100738.94;;;-7.41;88.57
50282;BME280;36176;51.506;10.272;2023-03-01T03:16:48;100740.69;;;-7.40;88.85
50282;BME280;36176;51.506;10.272;2023-03-01T03:19:16;100734.53;;;-7.43;88.89
50282;BME280;36176;51.506;10.272;2023-03-01T03:21:44;100738.81;;;-7.44;88.55
50282;BME280;36176;51.506;10.272;2023-03-01T03:24:11;100738.06;;;-7.41;88.70
50282;BME280;36176;51.506;10.272;2023-03-01T03:26:38;100732.03;;;-7.42;88.01
50282;BME280;36176;51.506;10.272;2023-03-01T03:29:05;100734.53;;;-7.43;88.07
50282;BME280;36176;51.506;10.272;2023-03-01T03:31:32;100729.25;;;-7.46;88.40
50282;BME280;36176;51.506;10.272;2023-03-01T03:33:59;100737.78;;;-7.47;88.27
50282;BME280;36176;51.506;10.272;2023-03-01T03:36:26;100732.63;;;-7.47;88.55
50282;BME280;36176;51.506;10.272;2023-03-01T03:38:53;100732.50;;;-7.51;88.25
50282;BME280;36176;51.506;10.272;2023-03-01T03:41:20;100729.84;;;-7.52;87.96
50282;BME280;36176;51.506;10.272;2023-03-01T03:43:47;100729.78;;;-7.54;88.17
50282;BME280;36176;51.506;10.272;2023-03-01T03:46:15;100738.25;;;-7.56;88.41
50282;BME280;36176;51.506;10.272;2023-03-01T03:48:45;100728.00;;;-7.55;87.98
50282;BME280;36176;51.506;10.272;2023-03-01T03:51:17;100730.78;;;-7.50;88.14
50282;BME280;36176;51.506;10.272;2023-03-01T03:53:44;100734.31;;;-7.48;89.15
50282;BME280;36176;51.506;10.272;2023-03-01T03:56:12;100736.25;;;-7.44;89.22
50282;BME280;36176;51.506;10.272;2023-03-01T03:58:39;100734.53;;;-7.43;89.01
50282;BME280;36176;51.506;10.272;2023-03-01T04:01:06;100734.53;;;-7.43;89.17
50282;BME280;36176;51.506;10.272;2023-03-01T04:03:34;100735.38;;;-7.44;89.32
50282;BME280;36176;51.506;10.272;2023-03-01T04:06:02;100734.25;;;-7.50;88.96
50282;BME280;36176;51.506;10.272;2023-03-01T04:08:29;100728.84;;;-7.56;88.58
50282;BME280;36176;51.506;10.272;2023-03-01T04:10:59;100731.31;;;-7.57;88.69
50282;BME280;36176;51.506;10.272;2023-03-01T04:13:26;100735.47;;;-7.61;88.45
50282;BME280;36176;51.506;10.272;2023-03-01T04:15:54;100736.88;;;-7.67;88.23
50282;BME280;36176;51.506;10.272;2023-03-01T04:18:23;100734.75;;;-7.76;89.08
50282;BME280;36176;51.506;10.272;2023-03-01T04:20:52;100736.34;;;-7.78;88.45
50282;BME280;36176;51.506;10.272;2023-03-01T04:23:22;100739.00;;;-7.77;89.13
50282;BME280;36176;51.506;10.272;2023-03-01T04:25:51;100742.13;;;-7.84;88.75
50282;BME280;36176;51.506;10.272;2023-03-01T04:28:27;100735.06;;;-7.88;88.93
50282;BME280;36176;51.506;10.272;2023-03-01T04:30:55;100731.56;;;-7.90;89.52
50282;BME280;36176;51.506;10.272;2023-03-01T04:33:24;100729.78;;;-7.91;89.36
50282;BME280;36176;51.506;10.272;2023-03-01T04:35:51;100735.75;;;-7.92;88.95
50282;BME280;36176;51.506;10.272;2023-03-01T04:38:19;100730.44;;;-7.95;88.99
50282;BME280;36176;51.506;10.272;2023-03-01T04:40:46;100726.75;;;-8.00;89.60
50282;BME280;36176;51.506;10.272;2023-03-01T04:43:14;100714.72;;;-8.01;89.26
50282;BME280;36176;51.506;10.272;2023-03-01T04:45:41;100723.09;;;-8.05;88.91
50282;BME280;36176;51.506;10.272;2023-03-01T04:48:09;100713.47;;;-8.09;89.25
50282;BME280;36176;51.506;10.272;2023-03-01T04:50:36;100722.81;;;-8.11;89.74
50282;BME280;36176;51.506;10.272;2023-03-01T04:53:03;100720.06;;;-8.15;89.30
50282;BME280;36176;51.506;10.272;2023-03-01T04:55:30;100727.00;;;-8.14;89.48
50282;BME280;36176;51.506;10.272;2023-03-01T04:57:58;100724.56;;;-8.10;89.31
50282;BME280;36176;51.506;10.272;2023-03-01T05:00:25;100715.09;;;-8.11;89.09
50282;BME280;36176;51.506;10.272;2023-03-01T05:03:01;100727.13;;;-8.10;89.20
50282;BME280;36176;51.506;10.272;2023-03-01T05:05:36;100728.66;;;-8.14;89.24
50282;BME280;36176;51.506;10.272;2023-03-01T05:08:07;100720.81;;;-8.17;89.25
50282;BME280;36176;51.506;10.272;2023-03-01T05:10:36;100728.38;;;-8.20;89.36
50282;BME280;36176;51.506;10.272;2023-03-01T05:13:03;100719.63;;;-8.24;89.75
50282;BME280;36176;51.506;10.272;2023-03-01T05:15:31;100729.78;;;-8.27;89.36
50282;BME280;36176;51.506;10.272;2023-03-01T05:17:59;100732.13;;;-8.31;89.59
50282;BME280;36176;51.506;10.272;2023-03-01T05:20:28;100726.09;;;-8.32;89.49
50282;BME280;36176;51.506;10.272;2023-03-01T05:22:57;100726.84;;;-8.35;89.18
50282;BME280;36176;51.506;10.272;2023-03-01T05:25:26;100732.06;;;-8.33;89.17
50282;BME280;36176;51.506;10.272;2023-03-01T05:27:53;100727.72;;;-8.34;89.00
50282;BME280;36176;51.506;10.272;2023-03-01T05:30:20;100721.63;;;-8.36;89.12
50282;BME280;36176;51.506;10.272;2023-03-01T05:32:49;100718.09;;;-8.38;89.11
50282;BME280;36176;51.506;10.272;2023-03-01T05:35:22;100721.41;;;-8.41;88.80
50282;BME280;36176;51.506;10.272;2023-03-01T05:37:49;100717.75;;;-8.46;89.66
50282;BME280;36176;51.506;10.272;2023-03-01T05:40:19;100716.88;;;-8.46;89.40
50282;BME280;36176;51.506;10.272;2023-03-01T05:42:52;100715.25;;;-8.44;89.41
50282;BME280;36176;51.506;10.272;2023-03-01T05:45:21;100717.09;;;-8.42;89.84
50282;BME280;36176;51.506;10.272;2023-03-01T05:47:50;100719.66;;;-8.42;89.08
50282;BME280;36176;51.506;10.272;2023-03-01T05:50:28;100723.13;;;-8.41;89.32
50282;BME280;36176;51.506;10.272;2023-03-01T05:52:59;100723.13;;;-8.41;88.66
50282;BME280;36176;51.506;10.272;2023-03-01T05:55:26;100721.47;;;-8.39;88.86
50282;BME280;36176;51.506;10.272;2023-03-01T05:57:55;100727.47;;;-8.40;88.47
50282;BME280;36176;51.506;10.272;2023-03-01T06:00:22;100721.38;;;-8.42;88.94
50282;BME280;36176;51.506;10.272;2023-03-01T06:02:49;100717.09;;;-8.42;89.52
50282;BME280;36176;51.506;10.272;2023-03-01T06:05:16;100717.88;;;-8.43;88.70
50282;BME280;36176;51.506;10.272;2023-03-01T06:07:44;100718.78;;;-8.42;88.65
50282;BME280;36176;51.506;10.272;2023-03-01T06:10:12;100717.09;;;-8.42;88.28
50282;BME280;36176;51.506;10.272;2023-03-01T06:12:40;100722.44;;;-8.37;88.40
50282;BME280;36176;51.506;10.272;2023-03-01T06:15:08;100725.22;;;-8.32;88.72
50282;BME280;36176;51.506;10.272;2023-03-01T06:17:39;100728.91;;;-8.27;88.68
50282;BME280;36176;51.506;10.272;2023-03-01T06:20:13;100723.16;;;-8.22;88.63
50282;BME280;36176;51.506;10.272;2023-03-01T06:22:41;100724.13;;;-8.20;89.83
50282;BME280;36176;51.506;10.272;2023-03-01T06:25:09;100723.47;;;-8.16;89.65
50282;BME280;36176;51.506;10.272;2023-03-01T06:27:36;100715.25;;;-8.08;89.45
50282;BME280;36176;51.506;10.272;2023-03-01T06:30:04;100716.47;;;-8.00;89.68
50282;BME280;36176;51.506;10.272;2023-03-01T06:32:31;100723.66;;;-7.93;88.63
50282;BME280;36176;51.506;10.272;2023-03-01T06:35:00;100716.91;;;-7.91;88.90
50282;BME280;36176;51.506;10.272;2023-03-01T06:37:27;100714.63;;;-7.85;89.15
50282;BME280;36176;51.506;10.272;2023-03-01T06:39:54;100704.22;;;-7.68;88.98
50282;BME280;36176;51.506;10.272;2023-03-01T06:42:22;100715.97;;;-6.97;88.84
50282;BME280;36176;51.506;10.272;2023-03-01T06:44:49;100704.53;;;-5.75;88.09
50282;BME280;36176;51.506;10.272;2023-03-01T06:47:16;100715.88;;;-4.51;85.29
50282;BME280;36176;51.506;10.272;2023-03-01T06:49:43;100705.56;;;-3.39;82.63
50282;BME280;36176;51.506;10.272;2023-03-01T06:52:10;100704.72;;;-2.42;80.13
50282;BME280;36176;51.506;10.272;2023-03-01T06:54:37;100704.75;;;-1.67;77.11
50282;BME280;36176;51.506;10.272;2023-03-01T06:57:04;100712.91;;;-1.08;74.02
50282;BME280;36176;51.506;10.272;2023-03-01T06:59:31;100707.16;;;-0.45;73.04
50282;BME280;36176;51.506;10.272;2023-03-01T07:01:58;100707.28;;;0.18;69.83
50282;BME280;36176;51.506;10.272;2023-03-01T07:04:25;100715.00;;;0.76;68.31
50282;BME280;36176;51.506;10.272;2023-03-01T07:06:55;100703.44;;;1.32;66.57
50282;BME280;36176;51.506;10.272;2023-03-01T07:09:23;100704.75;;;1.78;65.45
50282;BME280;36176;51.506;10.272;2023-03-01T07:11:50;100707.69;;;2.20;63.46
50282;BME280;36176;51.506;10.272;2023-03-01T07:14:17;100707.94;;;2.63;62.81
50282;BME280;36176;51.506;10.272;2023-03-01T07:16:44;100699.41;;;3.10;60.86
50282;BME280;36176;51.506;10.272;2023-03-01T07:19:11;100706.47;;;3.40;59.73
50282;BME280;36176;51.506;10.272;2023-03-01T07:21:38;100692.44;;;3.27;58.75
50282;BME280;36176;51.506;10.272;2023-03-01T07:24:06;100702.91;;;3.15;58.42
50282;BME280;36176;51.506;10.272;2023-03-01T07:26:33;100696.69;;;2.87;57.67
50282;BME280;36176;51.506;10.272;2023-03-01T07:29:01;100689.59;;;2.63;58.65
50282;BME280;36176;51.506;10.272;2023-03-01T07:31:29;100689.63;;;2.70;58.87
50282;BME280;36176;51.506;10.272;2023-03-01T07:33:56;100696.75;;;3.02;58.34
50282;BME280;36176;51.506;10.272;2023-03-01T07:36:24;100693.31;;;3.23;57.27
50282;BME280;36176;51.506;10.272;2023-03-01T07:38:51;100691.63;;;3.59;57.17
50282;BME280;36176;51.506;10.272;2023-03-01T07:41:18;100691.63;;;3.91;56.10
50282;BME280;36176;51.506;10.272;2023-03-01T07:43:45;100690.72;;;4.14;53.76
50282;BME280;36176;51.506;10.272;2023-03-01T07:46:12;100691.59;;;4.25;54.96
50282;BME280;36176;51.506;10.272;2023-03-01T07:48:39;100689.69;;;4.76;54.92
50282;BME280;36176;51.506;10.272;2023-03-01T07:51:06;100697.34;;;5.25;53.28
50282;BME280;36176;51.506;10.272;2023-03-01T07:53:34;100689.13;;;5.73;51.75
50282;BME280;36176;51.506;10.272;2023-03-01T07:58:38;100688.53;;;6.42;50.24
50282;BME280;36176;51.506;10.272;2023-03-01T08:01:08;100690.75;;;6.76;48.84
50282;BME280;36176;51.506;10.272;2023-03-01T08:03:35;100684.38;;;6.97;47.59
50282;BME280;36176;51.506;10.272;2023-03-01T08:06:05;100683.09;;;7.26;48.05
50282;BME280;36176;51.506;10.272;2023-03-01T08:08:33;100683.56;;;7.52;47.50
50282;BME280;36176;51.506;10.272;2023-03-01T08:11:02;100672.47;;;7.86;46.48
50282;BME280;36176;51.506;10.272;2023-03-01T08:13:30;100675.59;;;8.08;45.78
50282;BME280;36176;51.506;10.272;2023-03-01T08:16:16;58343.00;;;-145.31;100.00
50282;BME280;36176;51.506;10.272;2023-03-01T08:18:43;58343.00;;;-145.31;100.00
50282;BME280;36176;51.506;10.272;2023-03-01T08:21:15;58343.00;;;-145.31;100.00
50282;BME280;36176;51.506;10.272;2023-03-01T08:23:43;58343.00;;;-145.31;100.00
50282;BME280;36176;51.506;10.272;2023-03-01T08:26:19;58343.00;;;-145.31;100.00
50282;BME280;36176;51.506;10.272;2023-03-01T08:28:48;58343.00;;;-145.31;100.00
50282;BME280;36176;51.506;10.272;2023-03-01T08:33:49;58343.00;;;-145.31;100.00
50282;BME280;36176;51.506;10.272;2023-03-01T08:36:26;58343.00;;;-145.31;100.00
50282;BME280;36176;51.506;10.272;2023-03-01T08:38:54;58343.00;;;-145.31;100.00
50282;BME280;36176;51.506;10.272;2023-03-01T08:41:21;58343.00;;;-145.31;100.00
50282;BME280;36176;51.506;10.272;2023-03-01T08:43:51;58343.00;;;-145.31;100.00
50282;BME280;36176;51.506;10.272;2023-03-01T08:46:19;58343.00;;;-145.31;100.00
50282;BME280;36176;51.506;10.272;2023-03-01T08:48:46;58343.00;;;-145.31;100.00
50282;BME280;36176;51.506;10.272;2023-03-01T08:51:15;58343.00;;;-145.31;100.00
50282;BME280;36176;51.506;10.272;2023-03-01T08:53:43;58343.00;;;-145.31;100.00
50282;BME280;36176;51.506;10.272;2023-03-01T08:56:10;58343.00;;;-145.31;100.00
50282;BME280;36176;51.506;10.272;2023-03-01T08:58:38;58343.00;;;-145.31;100.00
50282;BME280;36176;51.506;10.272;2023-03-01T09:01:08;58343.00;;;-145.31;100.00
50282;BME280;36176;51.506;10.272;2023-03-01T09:03:36;58343.00;;;-145.31;100.00
50282;BME280;36176;51.506;10.272;2023-03-01T09:06:04;58343.00;;;-145.31;100.00
50282;BME280;36176;51.506;10.272;2023-03-01T09:08:40;58343.00;;;-145.31;100.00
50282;BME280;36176;51.506;10.272;2023-03-01T09:11:09;58343.00;;;-145.31;100.00
50282;BME280;36176;51.506;10.272;2023-03-01T09:13:37;58343.00;;;-145.31;100.00
50282;BME280;36176;51.506;10.272;2023-03-01T09:16:06;58343.00;;;-145.31;100.00
50282;BME280;36176;51.506;10.272;2023-03-01T09:18:34;58343.00;;;-145.31;100.00
50282;BME280;36176;51.506;10.272;2023-03-01T09:21:07;58343.00;;;-145.31;100.00
50282;BME280;36176;51.506;10.272;2023-03-01T09:23:35;58343.00;;;-145.31;100.00
50282;BME280;36176;51.506;10.272;2023-03-01T09:26:03;58343.00;;;-145.31;100.00
50282;BME280;36176;51.506;10.272;2023-03-01T09:28:30;58343.00;;;-145.31;100.00
50282;BME280;36176;51.506;10.272;2023-03-01T09:30:58;58343.00;;;-145.31;100.00
50282;BME280;36176;51.506;10.272;2023-03-01T09:33:27;58343.00;;;-145.31;100.00
50282;BME280;36176;51.506;10.272;2023-03-01T09:35:58;58343.00;;;-145.31;100.00
50282;BME280;36176;51.506;10.272;2023-03-01T09:38:25;58343.00;;;-145.31;100.00
50282;BME280;36176;51.506;10.272;2023-03-01T09:40:53;58343.00;;;-145.31;100.00
50282;BME280;36176;51.506;10.272;2023-03-01T09:46:12;58343.00;;;-145.31;100.00
50282;BME280;36176;51.506;10.272;2023-03-01T09:48:48;58343.00;;;-145.31;100.00
50282;BME280;36176;51.506;10.272;2023-03-01T09:51:32;58343.00;;;-145.31;100.00
50282;BME280;36176;51.506;10.272;2023-03-01T09:54:04;58343.00;;;-145.31;100.00
50282;BME280;36176;51.506;10.272;2023-03-01T09:56:46;58343.00;;;-145.31;100.00
50282;BME280;36176;51.506;10.272;2023-03-01T10:02:17;58343.00;;;-145.31;100.00
50282;BME280;36176;51.506;10.272;2023-03-01T10:04:50;58343.00;;;-145.31;100.00
50282;BME280;36176;51.506;10.272;2023-03-01T10:07:21;58343.00;;;-145.31;100.00
50282;BME280;36176;51.506;10.272;2023-03-01T10:09:53;58343.00;;;-145.31;100.00
50282;BME280;36176;51.506;10.272;2023-03-01T10:12:25;58343.00;;;-145.31;100.00
50282;BME280;36176;51.506;10.272;2023-03-01T10:15:16;58343.00;;;-145.31;100.00
50282;BME280;36176;51.506;10.272;2023-03-01T10:17:50;58343.00;;;-145.31;100.00
50282;BME280;36176;51.506;10.272;2023-03-01T10:20:30;58343.00;;;-145.31;100.00
50282;BME280;36176;51.506;10.272;2023-03-01T10:23:01;58343.00;;;-145.31;100.00
50282;BME280;36176;51.506;10.272;2023-03-01T10:25:47;58343.00;;;-145.31;100.00
50282;BME280;36176;51.506;10.272;2023-03-01T10:28:28;58343.00;;;-145.31;100.00
50282;BME280;36176;51.506;10.272;2023-03-01T10:30:58;58343.00;;;-145.31;100.00
50282;BME280;36176;51.506;10.272;2023-03-01T10:33:37;58343.00;;;-145.31;100.00
50282;BME280;36176;51.506;10.272;2023-03-01T10:36:06;58343.00;;;-145.31;100.00
50282;BME280;36176;51.506;10.272;2023-03-01T10:38:49;58343.00;;;-145.31;100.00
50282;BME280;36176;51.506;10.272;2023-03-01T10:41:16;58343.00;;;-145.31;100.00
50282;BME280;36176;51.506;10.272;2023-03-01T10:43:52;58343.00;;;-145.31;100.00
50282;BME280;36176;51.506;10.272;2023-03-01T10:46:37;58343.00;;;-145.31;100.00
50282;BME280;36176;51.506;10.272;2023-03-01T10:51:41;58343.00;;;-145.31;100.00
50282;BME280;36176;51.506;10.272;2023-03-01T10:54:38;58343.00;;;-145.31;100.00
50282;BME280;36176;51.506;10.272;2023-03-01T10:57:27;58343.00;;;-145.31;100.00
50282;BME280;36176;51.506;10.272;2023-03-01T11:00:15;58343.00;;;-145.31;100.00
50282;BME280;36176;51.506;10.272;2023-03-01T11:02:51;58343.00;;;-145.31;100.00
50282;BME280;36176;51.506;10.272;2023-03-01T11:05:23;58343.00;;;-145.31;100.00
50282;BME280;36176;51.506;10.272;2023-03-01T11:07:55;58343.00;;;-145.31;100.00
50282;BME280;36176;51.506;10.272;2023-03-01T11:10:31;58343.00;;;-145.31;100.00
50282;BME280;36176;51.506;10.272;2023-03-01T11:13:16;58343.00;;;-145.31;100.00
50282;BME280;36176;51.506;10.272;2023-03-01T11:16:02;58343.00;;;-145.31;100.00
50282;BME280;36176;51.506;10.272;2023-03-01T11:18:30;58343.00;;;-145.31;100.00
50282;BME280;36176;51.506;10.272;2023-03-01T11:21:13;58343.00;;;-145.31;100.00
50282;BME280;36176;51.506;10.272;2023-03-01T11:23:43;58343.00;;;-145.31;100.00
50282;BME280;36176;51.506;10.272;2023-03-01T11:26:13;58343.00;;;-145.31;100.00
50282;BME280;36176;51.506;10.272;2023-03-01T11:28:53;58343.00;;;-145.31;100.00
50282;BME280;36176;51.506;10.272;2023-03-01T11:31:24;58343.00;;;-145.31;100.00
50282;BME280;36176;51.506;10.272;2023-03-01T11:34:03;58343.00;;;-145.31;100.00
50282;BME280;36176;51.506;10.272;2023-03-01T11:36:35;58343.00;;;-145.31;100.00
50282;BME280;36176;51.506;10.272;2023-03-01T11:39:36;58343.00;;;-145.31;100.00
50282;BME280;36176;51.506;10.272;2023-03-01T11:42:15;58343.00;;;-145.31;100.00
50282;BME280;36176;51.506;10.272;2023-03-01T11:44:48;58343.00;;;-145.31;100.00
50282;BME280;36176;51.506;10.272;2023-03-01T11:50:05;58343.00;;;-145.31;100.00
50282;BME280;36176;51.506;10.272;2023-03-01T11:52:43;58343.00;;;-145.31;100.00
50282;BME280;36176;51.506;10.272;2023-03-01T11:55:26;58343.00;;;-145.31;100.00
50282;BME280;36176;51.506;10.272;2023-03-01T11:58:21;58343.00;;;-145.31;100.00
50282;BME280;36176;51.506;10.272;2023-03-01T12:01:01;58343.00;;;-145.31;100.00
50282;BME280;36176;51.506;10.272;2023-03-01T12:04:03;58343.00;;;-145.31;100.00
50282;BME280;36176;51.506;10.272;2023-03-01T12:09:31;58343.00;;;-145.31;100.00
50282;BME280;36176;51.506;10.272;2023-03-01T12:12:26;58343.00;;;-145.31;100.00
50282;BME280;36176;51.506;10.272;2023-03-01T12:15:26;58343.00;;;-145.31;100.00
50282;BME280;36176;51.506;10.272;2023-03-01T12:18:18;58343.00;;;-145.31;100.00
50282;BME280;36176;51.506;10.272;2023-03-01T12:21:00;58343.00;;;-145.31;100.00
50282;BME280;36176;51.506;10.272;2023-03-01T12:26:17;58343.00;;;-145.31;100.00
50282;BME280;36176;51.506;10.272;2023-03-01T12:35:17;58343.00;;;-145.31;100.00
50282;BME280;36176;51.506;10.272;2023-03-01T12:40:35;58343.00;;;-145.31;100.00
50282;BME280;36176;51.506;10.272;2023-03-01T12:43:28;58343.00;;;-145.31;100.00
50282;BME280;36176;51.506;10.272;2023-03-01T12:46:20;58343.00;;;-145.31;100.00
50282;BME280;36176;51.506;10.272;2023-03-01T12:49:02;58343.00;;;-145.31;100.00
50282;BME280;36176;51.506;10.272;2023-03-01T12:51:34;58343.00;;;-145.31;100.00
50282;BME280;36176;51.506;10.272;2023-03-01T12:54:11;58343.00;;;-145.31;100.00
50282;BME280;36176;51.506;10.272;2023-03-01T12:56:41;58343.00;;;-145.31;100.00
50282;BME280;36176;51.506;10.272;2023-03-01T13:02:05;58343.00;;;-145.31;100.00
50282;BME280;36176;51.506;10.272;2023-03-01T13:07:45;58343.00;;;-145.31;100.00
50282;BME280;36176;51.506;10.272;2023-03-01T13:10:38;58343.00;;;-145.31;100.00
50282;BME280;36176;51.506;10.272;2023-03-01T13:13:22;58343.00;;;-145.31;100.00
50282;BME280;36176;51.506;10.272;2023-03-01T13:15:50;58343.00;;;-145.31;100.00
50282;BME280;36176;51.506;10.272;2023-03-01T13:20:50;58343.00;;;-145.31;100.00
50282;BME280;36176;51.506;10.272;2023-03-01T13:31:03;58343.00;;;-145.31;100.00
50282;BME280;36176;51.506;10.272;2023-03-01T13:35:58;58343.00;;;-145.31;100.00
50282;BME280;36176;51.506;10.272;2023-03-01T13:38:45;58343.00;;;-145.31;100.00
50282;BME280;36176;51.506;10.272;2023-03-01T13:44:26;58343.00;;;-145.31;100.00
50282;BME280;36176;51.506;10.272;2023-03-01T13:49:42;58343.00;;;-145.31;100.00
50282;BME280;36176;51.506;10.272;2023-03-01T13:55:03;58343.00;;;-145.31;100.00
50282;BME280;36176;51.506;10.272;2023-03-01T13:57:34;58343.00;;;-145.31;100.00